KLBL/LBL METAR and TAF weather

Enter ICAO airport designator
Station Type Date Time Source
KLBL METAR 2018/12/17 16:56 UTC NOAA

KLBL 171656Z AUTO 21009KT 10SM CLR 09/M06 A3025 RMK AO2 SLP255 T00891056


Station Type Date Time Source
KLBL Decoded METAR 2018/12/17 16:56 UTC NOAA

Liberal, Liberal Municipal Airport, KS, United States (KLBL) 37-03N 100-58W
Dec 17, 2018 - 11:56 AM EST / 2018.12.17 1656 UTC
Wind: from the SSW (210 degrees) at 10 MPH (9 KT):0
Visibility: 10 mile(s):0
Sky conditions: clear
Temperature: 48.0 F (8.9 C)
Dew Point: 21.9 F (-5.6 C)
Relative Humidity: 35%
Pressure (altimeter): 30.25 in. Hg (1024 hPa)
ob: KLBL 171656Z AUTO 21009KT 10SM CLR 09/M06 A3025 RMK AO2 SLP255 T00891056
cycle: 17

Station Type Date Time Source
KLBL TAF 2018/12/17 18:21 UTC NOAA

TAF KLBL 171720Z 1718/1818 21010KT P6SM FEW250
FM171900 19015KT P6SM FEW250
FM172300 18012KT P6SM SCT250
FM180600 19010KT P6SM BKN120


Example: see airport list